Terminal Aerodrome Forecast
Issued by NWS

Home | Current Version | Previous Version | Text Only | Print | Product List | Glossary On
Versions: 1 2 3 4 5 6 7 8 9 10 11 12 13 14 15 16 17 18 19 20 21 22 23 24
000
FTUS43 KGRR 180540
TAFLAN
TAF
KLAN 180540Z 1806/1906 26009KT 2SM -RA BR OVC005
     FM180830 26010KT 1 1/2SM BR OVC006
     FM181400 26010KT 4SM BR OVC015
     FM181800 24010KT P6SM BKN025
     FM190000 22010KT 6SM BR SCT150=

USA.gov is the U.S. government's official web portal to all federal, state and local government web resources and services.